createdAt,value
2022-09-06T00:00:22.690Z,73.51
2022-09-06T00:01:22.683Z,73.41
2022-09-06T00:02:22.685Z,73.41
2022-09-06T00:03:22.658Z,73.22
2022-09-06T00:04:22.701Z,73.32
2022-09-06T00:05:22.623Z,73.32
2022-09-06T00:06:22.609Z,73.51
2022-09-06T00:07:22.609Z,73.70
2022-09-06T00:08:22.585Z,73.90
2022-09-06T00:09:22.571Z,73.99
2022-09-06T00:10:22.560Z,73.90
2022-09-06T00:11:22.545Z,73.90
2022-09-06T00:12:22.533Z,73.51
2022-09-06T00:13:22.521Z,73.61
2022-09-06T00:14:22.510Z,74.27
2022-09-06T00:15:22.495Z,73.95
2022-09-06T00:16:22.511Z,73.80
2022-09-06T00:17:22.466Z,74.43
2022-09-06T00:18:22.598Z,74.57
2022-09-06T00:19:22.440Z,75.23
2022-09-06T00:20:22.426Z,74.24
2022-09-06T00:21:22.414Z,74.52
2022-09-06T00:22:22.399Z,74.57
2022-09-06T00:23:22.387Z,74.62
2022-09-06T00:24:22.371Z,75.01
2022-09-06T00:25:22.359Z,75.10
2022-09-06T00:26:22.345Z,74.82
2022-09-06T00:27:22.332Z,75.04
2022-09-06T00:28:30.891Z,75.14
2022-09-06T00:30:26.300Z,74.82
2022-09-06T00:31:26.357Z,74.85
2022-09-06T00:33:30.716Z,74.85
2022-09-06T00:34:30.694Z,74.66
2022-09-06T00:36:35.149Z,74.76
2022-09-06T00:37:35.118Z,75.23
2022-09-06T00:39:28.582Z,74.95
2022-09-06T00:40:28.475Z,74.95
2022-09-06T00:42:32.917Z,74.76
2022-09-06T00:43:32.898Z,75.04
2022-09-06T00:45:37.349Z,74.76
2022-09-06T00:46:37.350Z,74.57
2022-09-06T00:48:41.319Z,74.76
2022-09-06T00:49:41.298Z,75.04
2022-09-06T00:51:45.749Z,75.04
2022-09-06T00:52:45.721Z,75.52
2022-09-06T00:54:49.706Z,75.52
2022-09-06T00:55:49.682Z,75.52
2022-09-06T00:57:54.119Z,75.33
2022-09-06T00:58:54.102Z,75.33
2022-09-06T01:00:58.562Z,75.71
2022-09-06T01:01:58.668Z,75.90
2022-09-06T01:03:51.664Z,75.90
2022-09-06T01:04:51.635Z,75.33
2022-09-06T01:06:56.074Z,75.23
2022-09-06T01:07:56.048Z,75.52
2022-09-06T01:09:49.432Z,75.14
2022-09-06T01:10:49.404Z,75.23
2022-09-06T01:12:53.861Z,75.62
2022-09-06T01:13:53.831Z,75.81
2022-09-06T01:15:58.332Z,75.62
2022-09-06T01:16:58.252Z,75.62
2022-09-06T01:19:02.706Z,75.81
2022-09-06T01:20:02.676Z,75.52
2022-09-06T01:22:07.121Z,75.90
2022-09-06T01:23:07.104Z,75.62
2022-09-06T01:25:11.550Z,75.81
2022-09-06T01:26:11.533Z,75.90
2022-09-06T01:28:15.975Z,76.00
2022-09-06T01:29:15.950Z,76.19
2022-09-06T01:31:20.426Z,76.67
2022-09-06T01:32:20.382Z,76.48
2022-09-06T01:34:24.839Z,76.73
2022-09-06T01:35:24.809Z,76.64
2022-09-06T01:37:28.776Z,76.44
2022-09-06T01:38:28.758Z,76.64
2022-09-06T01:40:32.734Z,77.40
2022-09-06T01:41:32.698Z,77.31
2022-09-06T01:43:37.153Z,77.02
2022-09-06T01:44:37.121Z,76.92
2022-09-06T01:46:42.577Z,77.50
2022-09-06T01:47:42.557Z,77.59
2022-09-06T01:49:35.926Z,77.88
2022-09-06T01:50:35.900Z,77.78
2022-09-06T01:52:40.332Z,77.97
2022-09-06T01:53:40.313Z,77.88
2022-09-06T01:55:44.302Z,77.97
2022-09-06T01:56:44.275Z,78.17
2022-09-06T01:58:48.728Z,78.27
2022-09-06T01:59:48.695Z,78.30
2022-09-06T02:01:53.217Z,78.20
2022-09-06T02:02:53.178Z,78.20
2022-09-06T02:04:57.111Z,78.20
2022-09-06T02:05:57.079Z,78.30
2022-09-06T02:08:01.093Z,77.06
2022-09-06T02:09:01.071Z,76.57
2022-09-06T02:11:05.528Z,75.90
2022-09-06T02:12:05.492Z,75.71
2022-09-06T02:14:09.947Z,75.56
2022-09-06T02:15:09.920Z,75.08
2022-09-06T02:17:15.376Z,74.06
2022-09-06T02:18:15.356Z,73.87
2022-09-06T02:20:08.742Z,73.43
2022-09-06T02:21:08.711Z,73.24
2022-09-06T02:23:13.155Z,72.56
2022-09-06T02:24:13.135Z,72.31
2022-09-06T02:26:17.103Z,71.93
2022-09-06T02:27:17.075Z,71.93
2022-09-06T02:29:22.540Z,71.73
2022-09-06T02:30:22.519Z,71.93
2022-09-06T02:32:26.956Z,71.64
2022-09-06T02:33:26.937Z,71.25
2022-09-06T02:35:31.393Z,71.45
2022-09-06T02:36:31.360Z,71.25
2022-09-06T02:38:35.345Z,71.25
2022-09-06T02:39:35.352Z,71.64
2022-09-06T02:41:39.781Z,71.35
2022-09-06T02:42:39.749Z,71.35
2022-09-06T02:44:44.205Z,71.29
2022-09-06T02:45:44.260Z,70.97
2022-09-06T02:47:48.142Z,71.16
2022-09-06T02:48:48.129Z,71.39
2022-09-06T02:50:52.114Z,71.16
2022-09-06T02:51:52.083Z,70.81
2022-09-06T02:53:56.080Z,71.00
2022-09-06T02:54:56.065Z,70.58
2022-09-06T02:57:01.529Z,71.16
2022-09-06T02:58:01.497Z,71.55
2022-09-06T02:59:54.881Z,71.35
2022-09-06T03:00:54.891Z,71.45
2022-09-06T03:02:59.298Z,71.25
2022-09-06T03:03:59.275Z,71.25
2022-09-06T03:06:03.254Z,71.73
2022-09-06T03:07:03.225Z,71.73
2022-09-06T03:08:03.213Z,71.93
2022-09-06T03:09:03.200Z,72.12
2022-09-06T03:10:03.199Z,71.83
2022-09-06T03:11:03.173Z,72.12
2022-09-06T03:12:03.171Z,72.69
2022-09-06T03:13:03.149Z,72.28
2022-09-06T03:14:03.138Z,72.50
2022-09-06T03:15:03.124Z,72.31
2022-09-06T03:16:03.110Z,72.18
2022-09-06T03:17:03.146Z,72.50
2022-09-06T03:18:03.103Z,72.85
2022-09-06T03:19:03.072Z,72.99
2022-09-06T03:20:03.061Z,73.46
2022-09-06T03:21:03.056Z,73.52
2022-09-06T03:22:03.035Z,73.62
2022-09-06T03:23:03.022Z,74.10
2022-09-06T03:24:03.012Z,74.29
2022-09-06T03:25:03.004Z,74.10
2022-09-06T03:26:02.984Z,74.48
2022-09-06T03:27:02.970Z,74.77
2022-09-06T03:28:02.958Z,74.77
2022-09-06T03:29:02.947Z,75.45
2022-09-06T03:30:02.950Z,75.35
2022-09-06T03:31:02.998Z,75.06
2022-09-06T03:32:02.908Z,75.15
2022-09-06T03:33:03.158Z,75.63
2022-09-06T03:34:02.887Z,75.54
2022-09-06T03:35:02.871Z,75.54
2022-09-06T03:36:02.856Z,76.12
2022-09-06T03:37:02.845Z,75.82
2022-09-06T03:38:02.971Z,75.73
2022-09-06T03:39:02.818Z,75.82
2022-09-06T03:40:02.916Z,75.63
2022-09-06T03:41:02.794Z,75.73
2022-09-06T03:42:02.781Z,75.54
2022-09-06T03:43:02.768Z,76.02
2022-09-06T03:44:02.754Z,76.12
2022-09-06T03:45:02.742Z,75.92
2022-09-06T03:46:02.854Z,75.35
2022-09-06T03:47:02.718Z,75.82
2022-09-06T03:48:02.705Z,75.82
2022-09-06T03:49:02.691Z,76.69
2022-09-06T03:50:02.693Z,76.79
2022-09-06T03:51:02.662Z,77.36
2022-09-06T03:52:02.653Z,77.65
2022-09-06T03:53:02.640Z,78.13
2022-09-06T03:54:02.631Z,78.03
2022-09-06T03:55:02.616Z,78.70
2022-09-06T03:56:02.599Z,79.09
2022-09-06T03:57:02.585Z,79.47
2022-09-06T03:58:02.574Z,80.05
2022-09-06T03:59:02.559Z,80.63
2022-09-06T04:00:02.547Z,80.15
2022-09-06T04:01:02.573Z,80.87
2022-09-06T04:02:02.579Z,82.74
2022-09-06T04:03:02.510Z,83.27
2022-09-06T04:04:02.498Z,82.79
2022-09-06T04:05:02.487Z,83.75
2022-09-06T04:06:02.470Z,84.61
2022-09-06T04:07:02.451Z,84.61
2022-09-06T04:08:02.453Z,84.61
2022-09-06T04:09:02.434Z,84.52
2022-09-06T04:10:02.433Z,84.71
2022-09-06T04:11:02.407Z,85.00
2022-09-06T04:12:02.387Z,85.28
2022-09-06T04:13:02.373Z,85.10
2022-09-06T04:14:02.362Z,85.19
2022-09-06T04:15:02.348Z,85.00
2022-09-06T04:16:02.333Z,85.19
2022-09-06T04:17:02.394Z,85.96
2022-09-06T04:18:06.007Z,85.67
2022-09-06T04:19:02.293Z,86.21
2022-09-06T04:20:02.279Z,85.96
2022-09-06T04:21:02.276Z,86.68
2022-09-06T04:22:02.255Z,86.63
2022-09-06T04:23:02.238Z,86.68
2022-09-06T04:24:02.227Z,87.26
2022-09-06T04:25:02.215Z,87.16
2022-09-06T04:26:02.200Z,87.68
2022-09-06T04:27:02.183Z,87.55
2022-09-06T04:28:02.172Z,86.97
2022-09-06T04:29:02.158Z,88.22
2022-09-06T04:30:02.152Z,87.64
2022-09-06T04:31:04.703Z,87.55
2022-09-06T04:32:02.182Z,87.93
2022-09-06T04:33:02.105Z,88.22
2022-09-06T04:34:02.096Z,88.41
2022-09-06T04:35:02.077Z,88.31
2022-09-06T04:36:02.067Z,88.51
2022-09-06T04:37:02.050Z,88.89
2022-09-06T04:38:02.044Z,88.51
2022-09-06T04:39:02.022Z,88.51
2022-09-06T04:40:02.110Z,88.31
2022-09-06T04:41:01.999Z,88.98
2022-09-06T04:42:01.985Z,88.60
2022-09-06T04:43:01.971Z,88.89
2022-09-06T04:44:01.959Z,88.89
2022-09-06T04:45:01.943Z,89.27
2022-09-06T04:46:02.083Z,89.37
2022-09-06T04:47:04.322Z,89.37
2022-09-06T04:48:01.901Z,89.37
2022-09-06T04:49:01.891Z,89.56
2022-09-06T04:50:01.880Z,89.94
2022-09-06T04:51:01.862Z,89.94
2022-09-06T04:52:01.848Z,89.65
2022-09-06T04:53:01.845Z,90.14
2022-09-06T04:54:01.898Z,90.23
2022-09-06T04:55:01.809Z,90.14
2022-09-06T04:56:01.795Z,90.04
2022-09-06T04:57:01.782Z,90.14
2022-09-06T04:58:01.779Z,90.42
2022-09-06T04:59:01.756Z,90.23
2022-09-06T05:00:01.742Z,89.56
2022-09-06T05:01:01.784Z,90.33
2022-09-06T05:02:01.754Z,90.23
2022-09-06T05:03:01.703Z,90.23
2022-09-06T05:04:01.687Z,90.14
2022-09-06T05:05:01.675Z,89.99
2022-09-06T05:06:01.662Z,89.56
2022-09-06T05:07:01.648Z,89.56
2022-09-06T05:08:01.638Z,89.79
2022-09-06T05:09:01.626Z,89.70
2022-09-06T05:10:01.613Z,89.32
2022-09-06T05:11:01.596Z,89.47
2022-09-06T05:12:01.581Z,89.37
2022-09-06T05:13:01.577Z,89.27
2022-09-06T05:14:01.559Z,89.18
2022-09-06T05:15:01.554Z,89.18
2022-09-06T05:16:01.595Z,89.47
2022-09-06T05:17:01.519Z,89.27
2022-09-06T05:18:01.508Z,89.27
2022-09-06T05:19:01.489Z,89.47
2022-09-06T05:20:01.475Z,89.56
2022-09-06T05:21:01.467Z,89.47
2022-09-06T05:22:01.448Z,88.70
2022-09-06T05:23:01.436Z,88.79
2022-09-06T05:24:01.427Z,89.47
2022-09-06T05:25:01.408Z,89.37
2022-09-06T05:26:01.401Z,89.27
2022-09-06T05:27:01.384Z,89.37
2022-09-06T05:28:01.371Z,89.47
2022-09-06T05:29:01.363Z,89.56
2022-09-06T05:30:01.343Z,89.37
2022-09-06T05:31:01.332Z,89.27
2022-09-06T05:32:01.364Z,88.70
2022-09-06T05:33:01.307Z,88.98
2022-09-06T05:34:01.293Z,88.89
2022-09-06T05:35:01.283Z,89.27
2022-09-06T05:36:01.276Z,89.47
2022-09-06T05:37:01.256Z,89.56
2022-09-06T05:38:01.242Z,89.37
2022-09-06T05:39:01.231Z,89.18
2022-09-06T05:40:01.404Z,89.37
2022-09-06T05:41:01.200Z,89.27
2022-09-06T05:42:01.184Z,89.47
2022-09-06T05:43:01.170Z,89.37
2022-09-06T05:44:01.192Z,89.47
2022-09-06T05:45:01.189Z,89.47
2022-09-06T05:46:01.181Z,89.47
2022-09-06T05:47:01.146Z,89.37
2022-09-06T05:48:01.104Z,89.27
2022-09-06T05:49:01.147Z,89.18
2022-09-06T05:50:01.079Z,89.85
2022-09-06T05:51:01.066Z,89.85
2022-09-06T05:52:01.050Z,89.94
2022-09-06T05:53:01.045Z,90.42
2022-09-06T05:54:01.027Z,90.23
2022-09-06T05:55:01.012Z,90.28
2022-09-06T05:56:01.080Z,90.37
2022-09-06T05:57:00.990Z,90.08
2022-09-06T05:58:00.970Z,89.61
2022-09-06T05:59:01.011Z,89.99
2022-09-06T06:00:00.945Z,89.79
2022-09-06T06:01:01.073Z,89.99
2022-09-06T06:02:03.368Z,89.61
2022-09-06T06:03:00.909Z,90.28
2022-09-06T06:04:00.895Z,89.75
2022-09-06T06:05:00.912Z,89.65
2022-09-06T06:06:00.865Z,89.75
2022-09-06T06:07:00.902Z,89.46
2022-09-06T06:08:00.880Z,89.55
2022-09-06T06:09:00.830Z,89.31
2022-09-06T06:10:00.816Z,88.83
2022-09-06T06:11:00.820Z,88.93
2022-09-06T06:12:00.788Z,89.12
2022-09-06T06:13:00.793Z,89.22
2022-09-06T06:14:00.761Z,89.31
2022-09-06T06:15:00.857Z,89.40
2022-09-06T06:16:00.762Z,88.83
2022-09-06T06:17:00.810Z,88.93
2022-09-06T06:18:00.713Z,88.97
2022-09-06T06:19:00.727Z,89.07
2022-09-06T06:20:00.687Z,88.87
2022-09-06T06:21:00.677Z,89.07
2022-09-06T06:22:00.659Z,88.49
2022-09-06T06:23:00.649Z,88.39
2022-09-06T06:24:00.638Z,88.44
2022-09-06T06:25:00.636Z,88.20
2022-09-06T06:26:00.614Z,88.24
2022-09-06T06:27:00.598Z,87.86
2022-09-06T06:28:00.594Z,87.96
2022-09-06T06:29:00.574Z,87.86
2022-09-06T06:30:00.561Z,87.76
2022-09-06T06:31:00.569Z,88.15
2022-09-06T06:32:00.632Z,88.24
2022-09-06T06:33:02.432Z,87.86
2022-09-06T06:34:08.222Z,87.81
2022-09-06T06:36:04.969Z,87.33
2022-09-06T06:37:04.943Z,87.42
2022-09-06T06:39:09.401Z,87.13
2022-09-06T06:40:09.437Z,86.56
2022-09-06T06:42:13.826Z,85.93
2022-09-06T06:43:13.798Z,86.31
2022-09-06T06:45:18.277Z,85.64
2022-09-06T06:46:18.295Z,85.68
2022-09-06T06:48:22.726Z,84.23
2022-09-06T06:49:22.688Z,84.23
2022-09-06T06:51:27.153Z,83.47
2022-09-06T06:52:27.120Z,82.93
2022-09-06T06:53:27.107Z,82.74
2022-09-06T06:54:27.095Z,82.83
2022-09-06T06:55:27.083Z,82.35
2022-09-06T06:56:27.077Z,81.77
2022-09-06T06:57:27.062Z,81.48
2022-09-06T06:58:27.174Z,80.81
2022-09-06T06:59:27.041Z,81.20
2022-09-06T07:00:28.371Z,80.46
2022-09-06T07:01:27.138Z,80.76
2022-09-06T07:02:27.062Z,80.27
2022-09-06T07:03:26.992Z,79.89
2022-09-06T07:04:26.986Z,79.50
2022-09-06T07:07:29.993Z,78.67
2022-09-06T07:08:27.049Z,77.90
2022-09-06T07:09:27.109Z,77.61
2022-09-06T07:10:34.469Z,77.71
2022-09-06T07:11:26.900Z,77.17
2022-09-06T07:12:26.890Z,76.40
2022-09-06T07:13:26.961Z,76.78
2022-09-06T07:14:26.872Z,76.30
2022-09-06T07:15:26.864Z,76.10
2022-09-06T07:16:26.880Z,75.85
2022-09-06T07:17:26.837Z,76.05
2022-09-06T07:18:26.827Z,75.67
2022-09-06T07:20:27.009Z,74.02
2022-09-06T07:21:42.187Z,73.67
2022-09-06T07:22:26.782Z,73.09
2022-09-06T07:24:26.762Z,72.71
2022-09-06T07:25:26.753Z,72.80
2022-09-06T07:26:26.744Z,72.36
2022-09-06T07:28:26.775Z,72.36
2022-09-06T07:29:26.713Z,71.88
2022-09-06T07:30:26.702Z,71.68
2022-09-06T07:32:26.682Z,71.23
2022-09-06T07:33:26.710Z,71.42
2022-09-06T07:34:26.664Z,70.94
2022-09-06T07:35:26.652Z,70.94
2022-09-06T07:36:26.643Z,71.23
2022-09-06T07:37:26.633Z,70.94
2022-09-06T07:38:26.624Z,70.88
2022-09-06T07:39:26.662Z,70.20
2022-09-06T07:40:26.609Z,70.01
2022-09-06T07:41:26.594Z,69.33
2022-09-06T07:42:26.588Z,69.24
2022-09-06T07:43:26.610Z,69.14
2022-09-06T07:44:26.567Z,68.37
2022-09-06T07:45:26.558Z,68.75
2022-09-06T07:46:26.560Z,68.37
2022-09-06T07:48:26.563Z,68.46
2022-09-06T07:49:26.527Z,68.30
2022-09-06T07:51:26.503Z,66.85
2022-09-06T07:53:31.193Z,66.75
2022-09-06T07:54:30.421Z,66.47
2022-09-06T07:55:26.469Z,65.20
2022-09-06T07:56:26.458Z,65.47
2022-09-06T07:57:26.451Z,65.56
2022-09-06T07:58:26.440Z,65.66
2022-09-06T07:59:26.431Z,65.24
2022-09-06T08:00:26.422Z,65.53
2022-09-06T08:01:26.442Z,65.56
2022-09-06T08:02:26.458Z,65.56
2022-09-06T08:03:26.437Z,65.08
2022-09-06T08:04:26.388Z,64.69
2022-09-06T08:06:26.371Z,63.95
2022-09-06T08:07:41.776Z,64.14
2022-09-06T08:09:26.344Z,62.92
2022-09-06T08:10:26.335Z,62.82
2022-09-06T08:11:26.330Z,62.34
2022-09-06T08:12:26.321Z,62.27
2022-09-06T08:13:26.334Z,61.98
2022-09-06T08:14:26.310Z,61.98
2022-09-06T08:15:26.297Z,61.69
2022-09-06T08:16:26.334Z,61.59
2022-09-06T08:17:26.284Z,61.30
2022-09-06T08:18:26.273Z,61.11
2022-09-06T08:19:26.263Z,60.72
2022-09-06T08:20:26.256Z,60.65
2022-09-06T08:21:26.249Z,60.27
2022-09-06T08:22:26.242Z,60.46
2022-09-06T08:23:26.319Z,60.20
2022-09-06T08:24:26.229Z,59.42
2022-09-06T08:25:26.221Z,59.69
2022-09-06T08:26:26.213Z,59.61
2022-09-06T08:27:26.208Z,59.33
2022-09-06T08:28:28.774Z,58.65
2022-09-06T08:29:26.194Z,58.87
2022-09-06T08:30:26.206Z,58.00
2022-09-06T08:31:26.219Z,58.19
2022-09-06T08:32:26.177Z,58.09
2022-09-06T08:33:26.195Z,57.42
2022-09-06T08:34:26.166Z,58.00
2022-09-06T08:35:26.154Z,57.64
2022-09-06T08:36:26.150Z,58.03
2022-09-06T08:37:26.142Z,57.06
2022-09-06T08:38:26.137Z,56.70
2022-09-06T08:39:26.180Z,56.21
2022-09-06T08:40:26.125Z,55.82
2022-09-06T08:41:26.132Z,55.63
2022-09-06T08:42:26.116Z,55.53
2022-09-06T08:43:26.142Z,54.75
2022-09-06T08:45:26.100Z,54.00
2022-09-06T08:46:26.140Z,53.81
2022-09-06T08:47:26.083Z,53.93
2022-09-06T08:48:26.167Z,53.16
2022-09-06T08:49:26.073Z,52.79
2022-09-06T08:50:26.069Z,52.31
2022-09-06T08:51:26.064Z,52.53
2022-09-06T08:52:26.059Z,51.94
2022-09-06T08:53:26.054Z,51.45
2022-09-06T08:54:26.050Z,51.45
2022-09-06T08:55:26.044Z,50.87
2022-09-06T08:56:26.041Z,50.48
2022-09-06T08:57:26.031Z,50.78
2022-09-06T08:58:26.079Z,50.31
2022-09-06T08:59:26.022Z,50.31
2022-09-06T09:00:26.103Z,49.73
2022-09-06T09:01:26.013Z,49.85
2022-09-06T09:02:26.066Z,48.88
2022-09-06T09:03:26.014Z,47.90
2022-09-06T09:04:26.003Z,47.42
2022-09-06T09:05:26.011Z,48.00
2022-09-06T09:06:26.010Z,47.90
2022-09-06T09:07:25.989Z,47.83
2022-09-06T09:08:25.989Z,46.78
2022-09-06T09:09:25.978Z,46.78
2022-09-06T09:10:25.972Z,46.78
2022-09-06T09:11:25.972Z,46.20
2022-09-06T09:12:25.962Z,45.92
2022-09-06T09:13:25.987Z,46.02
2022-09-06T09:14:25.959Z,46.04
2022-09-06T09:15:25.948Z,45.56
2022-09-06T09:16:26.019Z,45.29
2022-09-06T09:17:25.944Z,45.29
2022-09-06T09:18:25.981Z,44.60
2022-09-06T09:19:25.937Z,44.21
2022-09-06T09:20:25.931Z,43.73
2022-09-06T09:21:30.424Z,44.12
2022-09-06T09:22:25.921Z,44.34
2022-09-06T09:23:25.921Z,43.95
2022-09-06T09:24:25.916Z,44.26
2022-09-06T09:25:25.909Z,43.69
2022-09-06T09:26:25.911Z,43.69
2022-09-06T09:27:25.902Z,42.54
2022-09-06T09:28:25.914Z,42.44
2022-09-06T09:29:29.500Z,42.56
2022-09-06T09:31:25.933Z,42.09
2022-09-06T09:32:25.889Z,42.11
2022-09-06T09:33:25.940Z,41.62
2022-09-06T09:34:25.880Z,41.25
2022-09-06T09:35:25.878Z,41.05
2022-09-06T09:36:25.876Z,40.56
2022-09-06T09:38:25.922Z,40.37
2022-09-06T09:39:25.890Z,40.17
2022-09-06T09:40:25.869Z,39.70
2022-09-06T09:41:25.860Z,39.41
2022-09-06T09:42:25.859Z,38.92
2022-09-06T09:43:25.857Z,38.31
2022-09-06T09:44:25.854Z,38.80
2022-09-06T09:45:25.850Z,39.07
2022-09-06T09:46:25.892Z,39.37
2022-09-06T09:47:25.846Z,39.59
2022-09-06T09:48:25.913Z,39.09
2022-09-06T09:49:25.839Z,38.41
2022-09-06T09:50:25.851Z,37.73
2022-09-06T09:51:27.654Z,38.02
2022-09-06T09:52:25.834Z,37.82
2022-09-06T09:53:25.832Z,37.25
2022-09-06T09:54:25.832Z,37.15
2022-09-06T09:55:25.827Z,37.25
2022-09-06T09:56:25.823Z,36.66
2022-09-06T09:57:25.837Z,36.66
2022-09-06T09:58:25.889Z,36.45
2022-09-06T09:59:25.819Z,36.35
2022-09-06T10:00:25.871Z,36.74
2022-09-06T10:01:25.812Z,36.65
2022-09-06T10:02:25.811Z,36.74
2022-09-06T10:03:26.074Z,36.96
2022-09-06T10:05:25.814Z,35.60
2022-09-06T10:07:25.796Z,35.70
2022-09-06T10:08:25.794Z,35.62
2022-09-06T10:09:25.794Z,35.13
2022-09-06T10:10:25.791Z,35.23
2022-09-06T10:11:25.787Z,35.24
2022-09-06T10:12:25.786Z,35.24
2022-09-06T10:13:25.785Z,34.87
2022-09-06T10:14:25.784Z,34.69
2022-09-06T10:15:25.780Z,33.53
2022-09-06T10:16:25.825Z,33.23
2022-09-06T10:17:25.783Z,33.53
2022-09-06T10:18:25.798Z,33.62
2022-09-06T10:19:25.769Z,33.53
2022-09-06T10:20:25.774Z,33.70
2022-09-06T10:21:25.769Z,34.01
2022-09-06T10:22:25.768Z,33.62
2022-09-06T10:25:25.763Z,32.84
2022-09-06T10:26:25.768Z,32.74
2022-09-06T10:27:25.758Z,32.93
2022-09-06T10:28:25.797Z,32.74
2022-09-06T10:29:25.759Z,32.54
2022-09-06T10:30:25.758Z,32.34
2022-09-06T10:31:25.773Z,32.23
2022-09-06T10:32:30.381Z,32.62
2022-09-06T10:33:25.749Z,32.72
2022-09-06T10:34:25.749Z,32.62
2022-09-06T10:35:25.749Z,33.13
2022-09-06T10:36:25.743Z,33.23
2022-09-06T10:37:25.745Z,32.95
2022-09-06T10:38:25.801Z,32.67
2022-09-06T10:39:25.764Z,32.49
2022-09-06T10:40:25.738Z,31.90
2022-09-06T10:41:25.735Z,32.00
2022-09-06T10:42:25.735Z,31.72
2022-09-06T10:43:25.733Z,31.83
2022-09-06T10:44:25.733Z,31.56
2022-09-06T10:45:25.733Z,31.06
2022-09-06T10:46:25.804Z,31.07
2022-09-06T10:47:25.727Z,30.50
2022-09-06T10:48:25.819Z,30.40
2022-09-06T10:49:25.726Z,29.71
2022-09-06T10:50:25.727Z,29.30
2022-09-06T10:51:25.723Z,29.88
2022-09-06T10:52:25.724Z,29.58
2022-09-06T10:53:25.725Z,29.68
2022-09-06T10:54:25.726Z,30.17
2022-09-06T10:55:25.728Z,30.07
2022-09-06T10:56:25.721Z,29.68
2022-09-06T10:58:25.903Z,29.28
2022-09-06T10:59:41.151Z,29.68
2022-09-06T11:00:25.722Z,29.38
2022-09-06T11:01:25.756Z,29.86
2022-09-06T11:02:25.866Z,29.47
2022-09-06T11:04:25.825Z,29.68
2022-09-06T11:05:41.081Z,29.38
2022-09-06T11:06:28.211Z,29.38
2022-09-06T11:07:25.832Z,29.20
2022-09-06T11:09:25.714Z,29.33
2022-09-06T11:10:25.721Z,28.75
2022-09-06T11:11:25.717Z,28.37
2022-09-06T11:12:25.795Z,28.47
2022-09-06T11:13:25.715Z,28.47
2022-09-06T11:14:25.718Z,28.37
2022-09-06T11:15:25.729Z,28.27
2022-09-06T11:16:25.764Z,28.27
2022-09-06T11:17:25.825Z,28.28
2022-09-06T11:18:25.764Z,28.18
2022-09-06T11:19:25.713Z,28.00
2022-09-06T11:20:31.267Z,27.60
2022-09-06T11:21:25.713Z,27.62
2022-09-06T11:22:25.720Z,27.50
2022-09-06T11:23:25.763Z,27.02
2022-09-06T11:24:25.715Z,27.01
2022-09-06T11:25:25.735Z,26.81
2022-09-06T11:26:25.721Z,26.91
2022-09-06T11:27:25.712Z,26.91
2022-09-06T11:28:25.718Z,26.81
2022-09-06T11:29:25.718Z,26.32
2022-09-06T11:30:25.724Z,26.42
2022-09-06T11:32:25.719Z,26.42
2022-09-06T11:33:25.888Z,26.92
2022-09-06T11:34:25.720Z,26.44
2022-09-06T11:35:25.727Z,26.25
2022-09-06T11:36:25.722Z,26.06
2022-09-06T11:37:25.722Z,26.34
2022-09-06T11:38:25.724Z,25.95
2022-09-06T11:41:25.725Z,25.84
2022-09-06T11:42:25.729Z,25.84
2022-09-06T11:43:25.768Z,25.44
2022-09-06T11:44:25.728Z,25.73
2022-09-06T11:45:25.734Z,25.63
2022-09-06T11:46:25.749Z,25.73
2022-09-06T11:47:25.730Z,25.23
2022-09-06T11:48:25.733Z,25.72
2022-09-06T11:49:25.730Z,25.33
2022-09-06T11:50:25.741Z,25.62
2022-09-06T11:51:25.731Z,25.73
2022-09-06T11:52:25.737Z,25.13
2022-09-06T11:53:25.808Z,25.03
2022-09-06T11:54:25.740Z,25.13
2022-09-06T11:55:25.740Z,25.71
2022-09-06T11:56:25.736Z,25.51
2022-09-06T11:57:25.737Z,25.52
2022-09-06T11:58:25.738Z,25.52
2022-09-06T11:59:25.737Z,25.44
2022-09-06T12:00:25.740Z,24.97
2022-09-06T12:01:25.738Z,24.37
2022-09-06T12:02:25.846Z,24.07
2022-09-06T12:04:25.738Z,23.89
2022-09-06T12:05:25.743Z,24.07
2022-09-06T12:06:25.744Z,23.29
2022-09-06T12:07:25.743Z,23.21
2022-09-06T12:08:25.838Z,23.30
2022-09-06T12:09:25.745Z,23.30
2022-09-06T12:10:25.746Z,23.50
2022-09-06T12:11:30.089Z,23.50
2022-09-06T12:12:25.751Z,23.49
2022-09-06T12:13:25.746Z,22.20
2022-09-06T12:14:25.752Z,22.11
2022-09-06T12:15:25.747Z,22.19
2022-09-06T12:16:25.784Z,22.49
2022-09-06T12:17:25.753Z,22.48
2022-09-06T12:18:25.858Z,22.38
2022-09-06T12:19:25.752Z,22.38
2022-09-06T12:20:25.757Z,22.18
2022-09-06T12:21:25.755Z,22.18
2022-09-06T12:22:25.756Z,22.38
2022-09-06T12:23:25.759Z,22.18
2022-09-06T12:24:25.756Z,22.18
2022-09-06T12:25:25.758Z,22.28
2022-09-06T12:26:25.762Z,22.18
2022-09-06T12:27:25.761Z,22.08
2022-09-06T12:28:25.813Z,22.39
2022-09-06T12:29:25.771Z,22.11
2022-09-06T12:30:25.761Z,21.71
2022-09-06T12:31:25.795Z,21.21
2022-09-06T12:32:25.761Z,21.21
2022-09-06T12:33:25.767Z,21.52
2022-09-06T12:34:25.765Z,21.22
2022-09-06T12:37:31.308Z,21.13
2022-09-06T12:38:31.289Z,20.95
2022-09-06T12:40:35.778Z,20.95
2022-09-06T12:41:37.455Z,20.95
2022-09-06T12:43:40.247Z,20.87
2022-09-06T12:44:40.242Z,20.49
2022-09-06T12:46:33.739Z,20.30
2022-09-06T12:47:33.659Z,20.10
2022-09-06T12:49:38.141Z,20.00
2022-09-06T12:50:38.151Z,19.70
2022-09-06T12:52:42.649Z,19.60
2022-09-06T12:53:42.635Z,19.31
2022-09-06T12:55:47.134Z,19.18
2022-09-06T12:56:47.118Z,20.07
2022-09-06T12:58:51.625Z,19.99
2022-09-06T12:59:51.641Z,19.60
2022-09-06T13:01:57.244Z,19.61
2022-09-06T13:02:57.256Z,19.61
2022-09-06T13:05:02.427Z,19.12
2022-09-06T13:06:02.421Z,19.31
2022-09-06T13:08:06.928Z,18.82
2022-09-06T13:09:06.907Z,19.31
2022-09-06T13:11:11.390Z,18.39
2022-09-06T13:12:11.375Z,18.68
2022-09-06T13:14:15.848Z,19.27
2022-09-06T13:15:15.846Z,19.37
2022-09-06T13:17:20.351Z,19.15
2022-09-06T13:18:20.342Z,19.25
2022-09-06T13:20:24.838Z,19.54
2022-09-06T13:21:24.818Z,20.04
2022-09-06T13:23:29.318Z,20.03
2022-09-06T13:24:29.340Z,20.03
2022-09-06T13:26:22.711Z,20.12
2022-09-06T13:27:22.691Z,20.21
2022-09-06T13:29:27.676Z,20.63
2022-09-06T13:30:27.169Z,20.24
2022-09-06T13:32:31.683Z,19.85
2022-09-06T13:33:31.655Z,19.56
2022-09-06T13:35:36.151Z,19.58
2022-09-06T13:36:36.171Z,19.48
2022-09-06T13:38:41.462Z,19.68
2022-09-06T13:39:41.501Z,19.78
2022-09-06T13:41:45.950Z,19.38
2022-09-06T13:42:45.930Z,19.37
2022-09-06T13:44:50.420Z,19.57
2022-09-06T13:45:50.433Z,19.38
2022-09-06T13:48:07.903Z,19.01
2022-09-06T13:48:54.899Z,18.80
2022-09-06T13:51:00.430Z,18.39
2022-09-06T13:52:00.396Z,18.48
2022-09-06T13:54:04.886Z,19.18
2022-09-06T13:55:04.880Z,19.09
2022-09-06T13:57:09.389Z,18.79
2022-09-06T13:58:09.366Z,18.50
2022-09-06T13:59:09.366Z,18.80
2022-09-06T14:00:09.370Z,18.70
2022-09-06T14:01:09.435Z,18.80
2022-09-06T14:02:09.426Z,18.40
2022-09-06T14:03:09.371Z,18.60
2022-09-06T14:04:09.372Z,18.60
2022-09-06T14:05:09.372Z,18.60
2022-09-06T14:06:09.377Z,18.69
2022-09-06T14:07:09.378Z,18.78
2022-09-06T14:08:09.385Z,18.97
2022-09-06T14:09:09.915Z,18.87
2022-09-06T14:10:09.382Z,19.05
2022-09-06T14:11:09.380Z,19.24
2022-09-06T14:12:09.383Z,19.73
2022-09-06T14:13:09.399Z,19.62
2022-09-06T14:14:09.402Z,19.92
2022-09-06T14:15:09.385Z,20.10
2022-09-06T14:16:09.474Z,20.29
2022-09-06T14:17:09.390Z,20.78
2022-09-06T14:18:13.779Z,20.78
2022-09-06T14:19:09.390Z,20.57
2022-09-06T14:20:09.390Z,20.57
2022-09-06T14:21:09.395Z,20.89
2022-09-06T14:22:09.397Z,20.68
2022-09-06T14:23:09.390Z,20.87
2022-09-06T14:24:09.390Z,20.87
2022-09-06T14:25:09.393Z,20.86
2022-09-06T14:26:09.391Z,21.25
2022-09-06T14:27:09.436Z,22.12
2022-09-06T14:28:09.431Z,22.01
2022-09-06T14:29:09.393Z,22.88
2022-09-06T14:30:09.407Z,23.25
2022-09-06T14:31:09.423Z,23.83
2022-09-06T14:32:09.396Z,24.41
2022-09-06T14:33:09.397Z,24.59
2022-09-06T14:34:09.413Z,24.88
2022-09-06T14:35:09.389Z,25.66
2022-09-06T14:36:09.390Z,25.76
2022-09-06T14:37:13.388Z,25.76
2022-09-06T14:38:09.391Z,25.76
2022-09-06T14:39:09.388Z,25.84
2022-09-06T14:40:09.445Z,26.03
2022-09-06T14:41:09.578Z,26.12
2022-09-06T14:42:09.390Z,26.12
2022-09-06T14:43:09.381Z,26.42
2022-09-06T14:44:09.402Z,26.72
2022-09-06T14:45:09.502Z,26.72
2022-09-06T14:46:09.472Z,26.70
2022-09-06T14:47:09.381Z,27.08
2022-09-06T14:48:09.381Z,27.28